sensor_id;sensor_type;location;lat;lon;timestamp;pressure;altitude;pressure_sealevel;temperature;humidity
40650;BME280;26342;42.826;23.992;2023-01-31T00:01:18;94886.25;;;-2.09;100.00
40650;BME280;26342;42.826;23.992;2023-01-31T00:03:44;94900.59;;;-1.98;100.00
40650;BME280;26342;42.826;23.992;2023-01-31T00:06:14;94899.22;;;-1.94;100.00
40650;BME280;26342;42.826;23.992;2023-01-31T00:08:40;94901.88;;;-1.87;100.00
40650;BME280;26342;42.826;23.992;2023-01-31T00:11:05;94903.75;;;-1.75;100.00
40650;BME280;26342;42.826;23.992;2023-01-31T00:13:31;94891.97;;;-1.64;100.00
40650;BME280;26342;42.826;23.992;2023-01-31T00:15:56;94893.38;;;-1.61;100.00
40650;BME280;26342;42.826;23.992;2023-01-31T00:18:22;94898.44;;;-1.53;100.00
40650;BME280;26342;42.826;23.992;2023-01-31T00:20:47;94885.13;;;-1.58;100.00
40650;BME280;26342;42.826;23.992;2023-01-31T00:23:13;94877.13;;;-1.57;100.00
40650;BME280;26342;42.826;23.992;2023-01-31T00:25:38;94880.78;;;-1.45;100.00
40650;BME280;26342;42.826;23.992;2023-01-31T00:28:04;94859.66;;;-1.43;100.00
40650;BME280;26342;42.826;23.992;2023-01-31T00:30:29;94860.41;;;-1.56;100.00
40650;BME280;26342;42.826;23.992;2023-01-31T00:32:54;94866.47;;;-1.49;100.00
40650;BME280;26342;42.826;23.992;2023-01-31T00:35:19;94859.69;;;-1.36;100.00
40650;BME280;26342;42.826;23.992;2023-01-31T00:37:45;94850.03;;;-1.29;100.00
40650;BME280;26342;42.826;23.992;2023-01-31T00:40:10;94845.03;;;-1.24;100.00
40650;BME280;26342;42.826;23.992;2023-01-31T00:42:35;94841.38;;;-1.30;100.00
40650;BME280;26342;42.826;23.992;2023-01-31T00:45:01;94845.63;;;-1.22;100.00
40650;BME280;26342;42.826;23.992;2023-01-31T00:47:26;94839.00;;;-1.12;100.00
40650;BME280;26342;42.826;23.992;2023-01-31T00:49:51;94852.31;;;-1.13;100.00
40650;BME280;26342;42.826;23.992;2023-01-31T00:52:17;94840.63;;;-1.17;100.00
40650;BME280;26342;42.826;23.992;2023-01-31T00:54:42;94843.84;;;-1.15;100.00
40650;BME280;26342;42.826;23.992;2023-01-31T00:57:07;94844.06;;;-1.10;100.00
40650;BME280;26342;42.826;23.992;2023-01-31T00:59:32;94837.22;;;-1.04;100.00
40650;BME280;26342;42.826;23.992;2023-01-31T01:01:58;94833.25;;;-0.94;100.00
40650;BME280;26342;42.826;23.992;2023-01-31T01:04:23;94818.94;;;-0.91;100.00
40650;BME280;26342;42.826;23.992;2023-01-31T01:06:48;94814.69;;;-0.92;100.00
40650;BME280;26342;42.826;23.992;2023-01-31T01:09:14;94815.72;;;-0.93;100.00
40650;BME280;26342;42.826;23.992;2023-01-31T01:11:40;94817.09;;;-0.97;100.00
40650;BME280;26342;42.826;23.992;2023-01-31T01:14:05;94814.09;;;-0.94;100.00
40650;BME280;26342;42.826;23.992;2023-01-31T01:16:32;94809.47;;;-0.92;100.00
40650;BME280;26342;42.826;23.992;2023-01-31T01:18:59;94809.66;;;-0.87;100.00
40650;BME280;26342;42.826;23.992;2023-01-31T01:21:25;94801.41;;;-0.84;100.00
40650;BME280;26342;42.826;23.992;2023-01-31T01:23:51;94803.03;;;-0.83;100.00
40650;BME280;26342;42.826;23.992;2023-01-31T01:26:19;94798.38;;;-0.74;100.00
40650;BME280;26342;42.826;23.992;2023-01-31T01:28:44;94800.00;;;-0.67;100.00
40650;BME280;26342;42.826;23.992;2023-01-31T01:31:11;94793.97;;;-0.67;100.00
40650;BME280;26342;42.826;23.992;2023-01-31T01:33:36;94787.72;;;-0.66;100.00
40650;BME280;26342;42.826;23.992;2023-01-31T01:36:06;94794.97;;;-0.75;100.00
40650;BME280;26342;42.826;23.992;2023-01-31T01:38:35;94796.56;;;-0.80;100.00
40650;BME280;26342;42.826;23.992;2023-01-31T01:41:01;94790.94;;;-0.77;100.00
40650;BME280;26342;42.826;23.992;2023-01-31T01:43:45;94788.13;;;-0.76;100.00
40650;BME280;26342;42.826;23.992;2023-01-31T01:46:19;94800.00;;;-0.73;100.00
40650;BME280;26342;42.826;23.992;2023-01-31T01:48:48;94794.56;;;-0.72;100.00
40650;BME280;26342;42.826;23.992;2023-01-31T01:51:14;94798.19;;;-0.66;100.00
40650;BME280;26342;42.826;23.992;2023-01-31T01:53:43;94809.47;;;-0.66;100.00
40650;BME280;26342;42.826;23.992;2023-01-31T01:56:21;94804.84;;;-0.64;100.00
40650;BME280;26342;42.826;23.992;2023-01-31T01:59:06;94801.03;;;-0.61;100.00
40650;BME280;26342;42.826;23.992;2023-01-31T02:01:34;94806.06;;;-0.66;100.00
40650;BME280;26342;42.826;23.992;2023-01-31T02:04:00;94806.03;;;-0.73;100.00
40650;BME280;26342;42.826;23.992;2023-01-31T02:06:26;94804.22;;;-0.72;100.00
40650;BME280;26342;42.826;23.992;2023-01-31T02:08:51;94802.03;;;-0.69;100.00
40650;BME280;26342;42.826;23.992;2023-01-31T02:11:22;94799.81;;;-0.65;100.00
40650;BME280;26342;42.826;23.992;2023-01-31T02:13:48;94791.56;;;-0.62;100.00
40650;BME280;26342;42.826;23.992;2023-01-31T02:16:15;94783.69;;;-0.62;100.00
40650;BME280;26342;42.826;23.992;2023-01-31T02:18:40;94784.28;;;-0.60;100.00
40650;BME280;26342;42.826;23.992;2023-01-31T02:33:59;94811.91;;;-0.51;100.00
40650;BME280;26342;42.826;23.992;2023-01-31T02:37:11;94815.53;;;-0.59;100.00
40650;BME280;26342;42.826;23.992;2023-01-31T02:41:49;94826.44;;;-0.62;100.00
40650;BME280;26342;42.826;23.992;2023-01-31T02:47:01;94834.88;;;-0.60;100.00
40650;BME280;26342;42.826;23.992;2023-01-31T02:49:33;94837.91;;;-0.69;100.00
40650;BME280;26342;42.826;23.992;2023-01-31T02:52:12;94844.53;;;-0.80;100.00
40650;BME280;26342;42.826;23.992;2023-01-31T02:54:40;94845.53;;;-0.94;100.00
40650;BME280;26342;42.826;23.992;2023-01-31T02:57:25;94856.38;;;-0.97;100.00
40650;BME280;26342;42.826;23.992;2023-01-31T02:59:51;94856.00;;;-0.94;100.00
40650;BME280;26342;42.826;23.992;2023-01-31T03:02:16;94865.47;;;-0.93;100.00
40650;BME280;26342;42.826;23.992;2023-01-31T03:04:42;94859.41;;;-0.87;100.00
40650;BME280;26342;42.826;23.992;2023-01-31T03:07:09;94868.69;;;-0.91;100.00
40650;BME280;26342;42.826;23.992;2023-01-31T03:10:01;94885.00;;;-0.89;100.00
40650;BME280;26342;42.826;23.992;2023-01-31T03:22:28;94907.38;;;-0.93;100.00
40650;BME280;26342;42.826;23.992;2023-01-31T03:24:55;94912.63;;;-0.87;100.00
40650;BME280;26342;42.826;23.992;2023-01-31T03:27:21;94915.63;;;-0.90;100.00
40650;BME280;26342;42.826;23.992;2023-01-31T03:29:47;94918.84;;;-0.88;100.00
40650;BME280;26342;42.826;23.992;2023-01-31T03:34:41;94934.75;;;-1.02;100.00
40650;BME280;26342;42.826;23.992;2023-01-31T03:37:10;94939.34;;;-1.04;100.00
40650;BME280;26342;42.826;23.992;2023-01-31T03:42:13;94928.66;;;-1.09;100.00
40650;BME280;26342;42.826;23.992;2023-01-31T03:47:34;94926.56;;;-1.34;100.00
40650;BME280;26342;42.826;23.992;2023-01-31T03:50:03;94919.34;;;-1.60;100.00
40650;BME280;26342;42.826;23.992;2023-01-31T03:52:34;94911.38;;;-1.80;100.00
40650;BME280;26342;42.826;23.992;2023-01-31T03:55:02;94901.94;;;-1.81;100.00
40650;BME280;26342;42.826;23.992;2023-01-31T03:57:30;94907.31;;;-1.82;100.00
40650;BME280;26342;42.826;23.992;2023-01-31T03:59:58;94901.88;;;-1.87;100.00
40650;BME280;26342;42.826;23.992;2023-01-31T04:02:27;94918.13;;;-1.92;100.00
40650;BME280;26342;42.826;23.992;2023-01-31T04:04:56;94908.34;;;-1.83;100.00
40650;BME280;26342;42.826;23.992;2023-01-31T04:07:23;94912.41;;;-1.74;100.00
40650;BME280;26342;42.826;23.992;2023-01-31T04:09:48;94921.97;;;-1.60;100.00
40650;BME280;26342;42.826;23.992;2023-01-31T04:12:14;94923.16;;;-1.62;100.00
40650;BME280;26342;42.826;23.992;2023-01-31T04:14:39;94928.44;;;-1.56;100.00
40650;BME280;26342;42.826;23.992;2023-01-31T04:17:05;94926.03;;;-1.57;100.00
40650;BME280;26342;42.826;23.992;2023-01-31T04:19:30;94931.00;;;-1.62;100.00
40650;BME280;26342;42.826;23.992;2023-01-31T04:21:55;94926.84;;;-1.50;100.00
40650;BME280;26342;42.826;23.992;2023-01-31T04:24:20;94922.09;;;-1.40;100.00
40650;BME280;26342;42.826;23.992;2023-01-31T04:26:46;94935.53;;;-1.43;100.00
40650;BME280;26342;42.826;23.992;2023-01-31T04:29:11;94938.22;;;-1.30;100.00
40650;BME280;26342;42.826;23.992;2023-01-31T04:31:36;94947.75;;;-1.22;100.00
40650;BME280;26342;42.826;23.992;2023-01-31T04:34:02;94946.75;;;-1.15;100.00
40650;BME280;26342;42.826;23.992;2023-01-31T04:36:27;94942.78;;;-1.04;100.00
40650;BME280;26342;42.826;23.992;2023-01-31T04:38:52;94957.72;;;-0.98;100.00
40650;BME280;26342;42.826;23.992;2023-01-31T04:41:17;94954.53;;;-0.93;100.00
40650;BME280;26342;42.826;23.992;2023-01-31T04:43:43;94958.75;;;-0.92;100.00
40650;BME280;26342;42.826;23.992;2023-01-31T04:46:08;94964.03;;;-0.86;100.00
40650;BME280;26342;42.826;23.992;2023-01-31T04:48:33;94951.72;;;-0.85;100.00
40650;BME280;26342;42.826;23.992;2023-01-31T04:50:59;94959.38;;;-0.83;100.00
40650;BME280;26342;42.826;23.992;2023-01-31T04:53:24;94957.00;;;-0.78;100.00
40650;BME280;26342;42.826;23.992;2023-01-31T04:55:52;94942.91;;;-0.71;100.00
40650;BME280;26342;42.826;23.992;2023-01-31T04:58:17;94950.13;;;-0.79;100.00
40650;BME280;26342;42.826;23.992;2023-01-31T05:00:43;94941.03;;;-0.90;100.00
40650;BME280;26342;42.826;23.992;2023-01-31T05:03:09;94950.47;;;-1.02;100.00
40650;BME280;26342;42.826;23.992;2023-01-31T05:05:34;94943.91;;;-1.20;100.00
40650;BME280;26342;42.826;23.992;2023-01-31T05:07:59;94943.75;;;-1.18;100.00
40650;BME280;26342;42.826;23.992;2023-01-31T05:10:24;94948.81;;;-1.10;100.00
40650;BME280;26342;42.826;23.992;2023-01-31T05:12:50;94953.25;;;-1.04;100.00
40650;BME280;26342;42.826;23.992;2023-01-31T05:15:15;94953.47;;;-0.99;100.00
40650;BME280;26342;42.826;23.992;2023-01-31T05:17:41;94949.25;;;-1.00;100.00
40650;BME280;26342;42.826;23.992;2023-01-31T05:20:06;94966.81;;;-0.94;100.00
40650;BME280;26342;42.826;23.992;2023-01-31T05:22:32;94953.06;;;-0.96;100.00
40650;BME280;26342;42.826;23.992;2023-01-31T05:24:57;94951.91;;;-0.93;100.00
40650;BME280;26342;42.826;23.992;2023-01-31T05:27:23;94959.78;;;-0.87;100.00
40650;BME280;26342;42.826;23.992;2023-01-31T05:29:48;94964.63;;;-0.83;100.00
40650;BME280;26342;42.826;23.992;2023-01-31T05:32:13;94973.31;;;-0.76;100.00
40650;BME280;26342;42.826;23.992;2023-01-31T05:34:39;94969.66;;;-0.82;100.00
40650;BME280;26342;42.826;23.992;2023-01-31T05:37:04;94974.22;;;-0.97;100.00
40650;BME280;26342;42.826;23.992;2023-01-31T05:39:30;94978.66;;;-0.98;100.00
40650;BME280;26342;42.826;23.992;2023-01-31T05:41:55;94968.78;;;-0.96;100.00
40650;BME280;26342;42.826;23.992;2023-01-31T05:44:21;94978.91;;;-0.93;100.00
40650;BME280;26342;42.826;23.992;2023-01-31T05:46:46;94973.88;;;-0.88;100.00
40650;BME280;26342;42.826;23.992;2023-01-31T05:49:12;94978.72;;;-0.85;100.00
40650;BME280;26342;42.826;23.992;2023-01-31T05:51:38;94989.59;;;-0.81;100.00
40650;BME280;26342;42.826;23.992;2023-01-31T05:54:03;94990.25;;;-0.79;100.00
40650;BME280;26342;42.826;23.992;2023-01-31T05:56:29;94984.13;;;-0.93;100.00
40650;BME280;26342;42.826;23.992;2023-01-31T05:58:54;94982.84;;;-1.03;100.00
40650;BME280;26342;42.826;23.992;2023-01-31T06:01:20;94985.63;;;-1.18;100.00
40650;BME280;26342;42.826;23.992;2023-01-31T06:03:46;94980.97;;;-1.23;100.00
40650;BME280;26342;42.826;23.992;2023-01-31T06:06:11;94979.25;;;-1.37;100.00
40650;BME280;26342;42.826;23.992;2023-01-31T06:08:37;94983.53;;;-1.29;100.00
40650;BME280;26342;42.826;23.992;2023-01-31T06:11:02;94978.94;;;-1.21;100.00
40650;BME280;26342;42.826;23.992;2023-01-31T06:13:31;94970.56;;;-1.09;100.00
40650;BME280;26342;42.826;23.992;2023-01-31T06:15:56;94976.03;;;-0.98;100.00
40650;BME280;26342;42.826;23.992;2023-01-31T06:18:22;94980.75;;;-0.87;100.00
40650;BME280;26342;42.826;23.992;2023-01-31T06:20:47;94978.66;;;-0.98;100.00
40650;BME280;26342;42.826;23.992;2023-01-31T06:23:12;94983.13;;;-0.92;100.00
40650;BME280;26342;42.826;23.992;2023-01-31T06:25:38;94987.78;;;-0.80;100.00
40650;BME280;26342;42.826;23.992;2023-01-31T06:28:03;94986.22;;;-0.75;100.00
40650;BME280;26342;42.826;23.992;2023-01-31T06:30:29;94995.50;;;-0.72;100.00
40650;BME280;26342;42.826;23.992;2023-01-31T06:32:55;94987.28;;;-0.63;100.00
40650;BME280;26342;42.826;23.992;2023-01-31T06:35:23;94995.31;;;-0.64;100.00
40650;BME280;26342;42.826;23.992;2023-01-31T06:37:48;95002.00;;;-0.62;100.00
40650;BME280;26342;42.826;23.992;2023-01-31T06:40:13;94993.97;;;-0.53;100.00
40650;BME280;26342;42.826;23.992;2023-01-31T06:42:38;94985.66;;;-0.57;100.00
40650;BME280;26342;42.826;23.992;2023-01-31T06:45:04;94985.66;;;-0.70;100.00
40650;BME280;26342;42.826;23.992;2023-01-31T06:47:29;94986.66;;;-0.65;100.00
40650;BME280;26342;42.826;23.992;2023-01-31T06:49:54;94986.31;;;-0.55;100.00
40650;BME280;26342;42.826;23.992;2023-01-31T06:52:20;94979.44;;;-0.49;100.00
40650;BME280;26342;42.826;23.992;2023-01-31T06:54:45;94985.47;;;-0.56;100.00
40650;BME280;26342;42.826;23.992;2023-01-31T06:57:10;94988.91;;;-0.55;100.00
40650;BME280;26342;42.826;23.992;2023-01-31T06:59:35;94986.31;;;-0.42;100.00
40650;BME280;26342;42.826;23.992;2023-01-31T07:02:01;94985.13;;;-0.33;100.00
40650;BME280;26342;42.826;23.992;2023-01-31T07:04:26;94982.50;;;-0.26;100.00
40650;BME280;26342;42.826;23.992;2023-01-31T07:06:51;94982.94;;;-0.22;100.00
40650;BME280;26342;42.826;23.992;2023-01-31T07:09:16;94989.19;;;-0.10;100.00
40650;BME280;26342;42.826;23.992;2023-01-31T07:11:42;94985.78;;;-0.04;100.00
40650;BME280;26342;42.826;23.992;2023-01-31T07:14:07;94995.88;;;0.12;100.00
40650;BME280;26342;42.826;23.992;2023-01-31T07:16:32;94980.53;;;0.16;100.00
40650;BME280;26342;42.826;23.992;2023-01-31T07:18:57;94985.97;;;0.08;100.00
40650;BME280;26342;42.826;23.992;2023-01-31T07:21:23;95005.16;;;0.15;100.00
40650;BME280;26342;42.826;23.992;2023-01-31T07:23:49;94997.91;;;0.23;100.00
40650;BME280;26342;42.826;23.992;2023-01-31T07:26:14;94997.69;;;0.32;100.00
40650;BME280;26342;42.826;23.992;2023-01-31T07:28:39;94994.91;;;0.40;100.00
40650;BME280;26342;42.826;23.992;2023-01-31T07:31:06;94993.06;;;0.40;100.00
40650;BME280;26342;42.826;23.992;2023-01-31T07:33:32;94984.56;;;0.38;100.00
40650;BME280;26342;42.826;23.992;2023-01-31T07:35:59;94989.66;;;0.40;100.00
40650;BME280;26342;42.826;23.992;2023-01-31T07:38:24;94982.97;;;0.37;100.00
40650;BME280;26342;42.826;23.992;2023-01-31T07:40:50;94978.13;;;0.41;100.00
40650;BME280;26342;42.826;23.992;2023-01-31T07:43:15;94975.47;;;0.47;100.00
40650;BME280;26342;42.826;23.992;2023-01-31T07:45:40;94981.13;;;0.58;100.00
40650;BME280;26342;42.826;23.992;2023-01-31T07:48:06;94981.94;;;0.51;100.00
40650;BME280;26342;42.826;23.992;2023-01-31T07:50:32;94993.25;;;0.45;100.00
40650;BME280;26342;42.826;23.992;2023-01-31T07:52:57;94989.03;;;0.44;100.00
40650;BME280;26342;42.826;23.992;2023-01-31T07:55:23;94988.41;;;0.42;100.00
40650;BME280;26342;42.826;23.992;2023-01-31T07:57:48;94988.22;;;0.37;100.00
40650;BME280;26342;42.826;23.992;2023-01-31T08:00:13;94985.78;;;0.42;100.00
40650;BME280;26342;42.826;23.992;2023-01-31T08:02:57;94992.88;;;0.42;100.00
40650;BME280;26342;42.826;23.992;2023-01-31T08:05:43;94984.78;;;0.50;100.00
40650;BME280;26342;42.826;23.992;2023-01-31T08:08:09;94989.22;;;0.56;100.00
40650;BME280;26342;42.826;23.992;2023-01-31T08:10:34;94989.81;;;0.51;100.00
40650;BME280;26342;42.826;23.992;2023-01-31T08:13:00;94997.69;;;0.58;100.00
40650;BME280;26342;42.826;23.992;2023-01-31T08:15:25;94991.44;;;0.59;100.00
40650;BME280;26342;42.826;23.992;2023-01-31T08:17:50;94990.63;;;0.59;100.00
40650;BME280;26342;42.826;23.992;2023-01-31T08:20:16;94997.50;;;0.60;100.00
40650;BME280;26342;42.826;23.992;2023-01-31T08:22:42;94998.94;;;0.55;100.00
40650;BME280;26342;42.826;23.992;2023-01-31T08:25:08;94991.41;;;0.72;100.00
40650;BME280;26342;42.826;23.992;2023-01-31T08:27:33;95001.09;;;0.78;100.00
40650;BME280;26342;42.826;23.992;2023-01-31T08:29:58;94999.06;;;0.87;100.00
40650;BME280;26342;42.826;23.992;2023-01-31T08:32:23;94995.44;;;0.88;100.00
40650;BME280;26342;42.826;23.992;2023-01-31T08:34:49;94991.56;;;0.97;100.00
40650;BME280;26342;42.826;23.992;2023-01-31T08:37:14;94994.13;;;1.10;100.00
40650;BME280;26342;42.826;23.992;2023-01-31T08:39:39;95000.75;;;1.26;100.00
40650;BME280;26342;42.826;23.992;2023-01-31T08:42:05;95006.38;;;1.43;100.00
40650;BME280;26342;42.826;23.992;2023-01-31T08:44:30;94995.38;;;1.59;100.00
40650;BME280;26342;42.826;23.992;2023-01-31T08:46:55;95003.63;;;1.70;100.00
40650;BME280;26342;42.826;23.992;2023-01-31T08:49:23;94993.06;;;1.76;100.00
40650;BME280;26342;42.826;23.992;2023-01-31T08:51:48;94995.03;;;1.81;100.00
40650;BME280;26342;42.826;23.992;2023-01-31T08:54:13;95001.94;;;1.82;100.00
40650;BME280;26342;42.826;23.992;2023-01-31T08:56:39;95000.53;;;1.79;100.00
40650;BME280;26342;42.826;23.992;2023-01-31T08:59:04;95001.81;;;1.63;100.00
40650;BME280;26342;42.826;23.992;2023-01-31T09:01:29;95001.78;;;1.70;100.00
40650;BME280;26342;42.826;23.992;2023-01-31T09:03:56;95002.22;;;1.67;100.00
40650;BME280;26342;42.826;23.992;2023-01-31T09:06:22;95005.75;;;1.86;100.00
40650;BME280;26342;42.826;23.992;2023-01-31T09:08:49;94999.44;;;1.93;100.00
40650;BME280;26342;42.826;23.992;2023-01-31T09:11:14;95001.16;;;2.38;100.00
40650;BME280;26342;42.826;23.992;2023-01-31T09:13:42;95003.19;;;3.04;100.00
40650;BME280;26342;42.826;23.992;2023-01-31T09:16:09;95001.09;;;3.61;100.00
40650;BME280;26342;42.826;23.992;2023-01-31T09:18:35;94998.44;;;3.49;100.00
40650;BME280;26342;42.826;23.992;2023-01-31T09:23:29;94997.44;;;3.62;100.00
40650;BME280;26342;42.826;23.992;2023-01-31T09:25:55;94989.84;;;3.84;100.00
40650;BME280;26342;42.826;23.992;2023-01-31T09:28:21;94994.00;;;4.22;100.00
40650;BME280;26342;42.826;23.992;2023-01-31T09:30:46;94982.19;;;4.47;98.83
40650;BME280;26342;42.826;23.992;2023-01-31T09:33:11;94987.91;;;4.21;100.00
40650;BME280;26342;42.826;23.992;2023-01-31T09:35:37;94992.56;;;4.07;100.00
40650;BME280;26342;42.826;23.992;2023-01-31T09:38:02;94990.56;;;4.21;100.00
40650;BME280;26342;42.826;23.992;2023-01-31T09:40:28;94983.00;;;4.36;100.00
40650;BME280;26342;42.826;23.992;2023-01-31T09:42:55;94978.44;;;4.90;99.90
40650;BME280;26342;42.826;23.992;2023-01-31T09:45:32;94989.78;;;5.26;99.19
40650;BME280;26342;42.826;23.992;2023-01-31T09:47:59;94989.09;;;5.30;94.28
40650;BME280;26342;42.826;23.992;2023-01-31T09:52:59;94995.44;;;4.94;100.00
40650;BME280;26342;42.826;23.992;2023-01-31T09:55:34;94995.78;;;4.51;96.16
40650;BME280;26342;42.826;23.992;2023-01-31T10:00:42;94995.13;;;4.14;100.00
40650;BME280;26342;42.826;23.992;2023-01-31T10:05:39;94990.59;;;4.03;100.00
40650;BME280;26342;42.826;23.992;2023-01-31T10:11:11;94990.09;;;3.82;100.00
40650;BME280;26342;42.826;23.992;2023-01-31T10:13:42;94989.22;;;3.70;100.00
40650;BME280;26342;42.826;23.992;2023-01-31T10:18:43;94982.00;;;3.47;100.00
40650;BME280;26342;42.826;23.992;2023-01-31T10:21:14;94990.22;;;3.39;100.00
40650;BME280;26342;42.826;23.992;2023-01-31T10:23:44;94982.41;;;3.32;100.00
40650;BME280;26342;42.826;23.992;2023-01-31T10:33:34;94981.44;;;3.27;100.00
40650;BME280;26342;42.826;23.992;2023-01-31T10:36:24;94984.22;;;3.32;100.00
40650;BME280;26342;42.826;23.992;2023-01-31T10:44:12;94975.94;;;3.10;100.00
40650;BME280;26342;42.826;23.992;2023-01-31T10:46:40;94982.59;;;3.13;100.00
40650;BME280;26342;42.826;23.992;2023-01-31T10:49:06;94979.53;;;3.16;100.00
40650;BME280;26342;42.826;23.992;2023-01-31T10:56:56;94971.41;;;3.17;100.00
40650;BME280;26342;42.826;23.992;2023-01-31T10:59:22;94975.66;;;3.18;100.00
40650;BME280;26342;42.826;23.992;2023-01-31T11:01:49;94973.31;;;3.10;100.00
40650;BME280;26342;42.826;23.992;2023-01-31T11:04:25;94971.38;;;2.99;100.00
40650;BME280;26342;42.826;23.992;2023-01-31T11:06:52;94975.50;;;2.95;100.00
40650;BME280;26342;42.826;23.992;2023-01-31T11:09:17;94976.88;;;2.79;100.00
40650;BME280;26342;42.826;23.992;2023-01-31T11:11:57;94972.78;;;2.83;100.00
40650;BME280;26342;42.826;23.992;2023-01-31T11:14:22;94972.03;;;2.76;100.00
40650;BME280;26342;42.826;23.992;2023-01-31T11:16:48;94978.31;;;2.75;100.00
40650;BME280;26342;42.826;23.992;2023-01-31T11:19:33;94976.06;;;2.78;100.00
40650;BME280;26342;42.826;23.992;2023-01-31T11:21:58;94976.06;;;2.78;100.00
40650;BME280;26342;42.826;23.992;2023-01-31T11:24:26;94971.38;;;2.80;100.00
40650;BME280;26342;42.826;23.992;2023-01-31T11:26:54;94973.00;;;2.82;100.00
40650;BME280;26342;42.826;23.992;2023-01-31T11:29:21;94963.03;;;2.84;100.00
40650;BME280;26342;42.826;23.992;2023-01-31T11:31:49;94961.06;;;2.79;100.00
40650;BME280;26342;42.826;23.992;2023-01-31T11:36:44;94972.19;;;2.81;100.00
40650;BME280;26342;42.826;23.992;2023-01-31T11:39:44;94966.47;;;2.84;100.00
40650;BME280;26342;42.826;23.992;2023-01-31T11:42:06;94977.41;;;2.88;100.00
40650;BME280;26342;42.826;23.992;2023-01-31T11:44:35;94967.03;;;2.68;100.00
40650;BME280;26342;42.826;23.992;2023-01-31T11:47:02;94964.28;;;2.63;100.00
40650;BME280;26342;42.826;23.992;2023-01-31T11:49:41;94970.34;;;2.63;100.00
40650;BME280;26342;42.826;23.992;2023-01-31T11:52:22;94965.38;;;2.73;100.00
40650;BME280;26342;42.826;23.992;2023-01-31T11:54:56;94963.19;;;2.70;100.00
40650;BME280;26342;42.826;23.992;2023-01-31T11:57:23;94954.66;;;2.68;100.00
40650;BME280;26342;42.826;23.992;2023-01-31T11:59:50;94959.47;;;2.78;100.00
40650;BME280;26342;42.826;23.992;2023-01-31T12:02:26;94969.31;;;2.64;100.00
40650;BME280;26342;42.826;23.992;2023-01-31T12:04:55;94956.16;;;2.64;100.00
40650;BME280;26342;42.826;23.992;2023-01-31T12:07:25;94960.22;;;2.60;100.00
40650;BME280;26342;42.826;23.992;2023-01-31T12:09:51;94956.72;;;2.66;100.00
40650;BME280;26342;42.826;23.992;2023-01-31T12:12:29;94958.13;;;2.69;100.00
40650;BME280;26342;42.826;23.992;2023-01-31T12:15:02;94955.50;;;2.69;100.00
40650;BME280;26342;42.826;23.992;2023-01-31T12:17:28;94964.84;;;2.65;100.00
40650;BME280;26342;42.826;23.992;2023-01-31T12:20:18;94957.41;;;2.62;100.00
40650;BME280;26342;42.826;23.992;2023-01-31T12:22:49;94967.75;;;2.57;100.00
40650;BME280;26342;42.826;23.992;2023-01-31T12:53:48;94972.41;;;2.79;100.00
40650;BME280;26342;42.826;23.992;2023-01-31T13:01:12;94979.78;;;2.71;100.00
40650;BME280;26342;42.826;23.992;2023-01-31T13:06:12;94986.09;;;2.70;100.00
40650;BME280;26342;42.826;23.992;2023-01-31T13:08:41;94985.13;;;2.64;100.00
40650;BME280;26342;42.826;23.992;2023-01-31T13:13:44;94979.03;;;2.64;100.00
40650;BME280;26342;42.826;23.992;2023-01-31T13:16:12;94980.81;;;2.70;100.00
40650;BME280;26342;42.826;23.992;2023-01-31T13:18:39;94976.19;;;2.65;100.00
40650;BME280;26342;42.826;23.992;2023-01-31T13:21:06;94979.53;;;2.54;100.00
40650;BME280;26342;42.826;23.992;2023-01-31T13:23:35;94978.88;;;2.59;100.00
40650;BME280;26342;42.826;23.992;2023-01-31T13:28:32;94983.00;;;2.55;100.00
40650;BME280;26342;42.826;23.992;2023-01-31T13:30:59;94983.41;;;2.51;100.00
40650;BME280;26342;42.826;23.992;2023-01-31T13:36:07;94987.19;;;2.62;100.00
40650;BME280;26342;42.826;23.992;2023-01-31T13:38:38;95002.63;;;2.52;100.00
40650;BME280;26342;42.826;23.992;2023-01-31T13:41:05;95000.19;;;2.32;100.00
40650;BME280;26342;42.826;23.992;2023-01-31T13:43:32;94996.25;;;2.16;100.00
40650;BME280;26342;42.826;23.992;2023-01-31T13:46:01;94999.31;;;2.13;100.00
40650;BME280;26342;42.826;23.992;2023-01-31T13:53:32;95002.25;;;1.99;100.00
40650;BME280;26342;42.826;23.992;2023-01-31T13:55:58;95008.09;;;2.01;100.00
40650;BME280;26342;42.826;23.992;2023-01-31T13:58:28;95009.69;;;2.02;100.00
40650;BME280;26342;42.826;23.992;2023-01-31T14:00:58;95007.88;;;2.02;100.00
40650;BME280;26342;42.826;23.992;2023-01-31T14:03:26;95018.06;;;1.92;100.00
40650;BME280;26342;42.826;23.992;2023-01-31T14:10:51;95027.84;;;1.78;100.00
40650;BME280;26342;42.826;23.992;2023-01-31T14:13:24;95034.13;;;1.77;100.00
40650;BME280;26342;42.826;23.992;2023-01-31T14:15:51;95028.28;;;1.75;100.00
40650;BME280;26342;42.826;23.992;2023-01-31T14:23:44;95037.63;;;1.58;100.00
40650;BME280;26342;42.826;23.992;2023-01-31T14:29:09;95041.25;;;1.70;100.00
40650;BME280;26342;42.826;23.992;2023-01-31T14:31:38;95046.94;;;1.67;100.00
40650;BME280;26342;42.826;23.992;2023-01-31T14:34:04;95049.13;;;1.70;100.00
40650;BME280;26342;42.826;23.992;2023-01-31T14:49:14;95061.06;;;1.73;100.00
40650;BME280;26342;42.826;23.992;2023-01-31T15:01:59;95084.56;;;1.67;100.00
40650;BME280;26342;42.826;23.992;2023-01-31T15:04:26;95084.31;;;1.76;100.00
40650;BME280;26342;42.826;23.992;2023-01-31T15:06:53;95082.53;;;1.70;100.00
40650;BME280;26342;42.826;23.992;2023-01-31T15:11:51;95086.97;;;1.69;100.00
40650;BME280;26342;42.826;23.992;2023-01-31T15:14:29;95080.13;;;1.61;100.00
40650;BME280;26342;42.826;23.992;2023-01-31T15:16:57;95084.38;;;1.62;100.00
40650;BME280;26342;42.826;23.992;2023-01-31T15:19:23;95090.25;;;1.58;100.00
40650;BME280;26342;42.826;23.992;2023-01-31T15:21:52;95096.72;;;1.62;100.00
40650;BME280;26342;42.826;23.992;2023-01-31T15:26:49;95104.00;;;1.66;100.00
40650;BME280;26342;42.826;23.992;2023-01-31T15:29:18;95105.19;;;1.64;100.00